createdAt,value
2023-04-28T00:03:06.756Z,7.01
2023-04-28T00:13:06.623Z,7.44
2023-04-28T00:23:06.818Z,6.79
2023-04-28T00:33:09.089Z,6.79
2023-04-28T00:43:07.273Z,6.79
2023-04-28T00:53:07.580Z,6.79
2023-04-28T01:03:07.746Z,7.01
2023-04-28T01:13:07.835Z,6.79
2023-04-28T01:23:08.045Z,6.79
2023-04-28T01:33:08.326Z,6.57
2023-04-28T01:43:08.512Z,6.57
2023-04-28T01:53:08.776Z,6.79
2023-04-28T02:03:09.125Z,6.34
2023-04-28T02:13:09.253Z,6.57
2023-04-28T02:23:09.271Z,6.34
2023-04-28T02:33:09.554Z,6.12
2023-04-28T02:43:09.742Z,6.34
2023-04-28T02:53:09.995Z,6.79
2023-04-28T03:03:10.354Z,7.86
2023-04-28T03:13:10.559Z,9.02
2023-04-28T03:23:10.584Z,9.73
2023-04-28T03:33:10.940Z,8.40
2023-04-28T03:43:11.007Z,9.09
2023-04-28T03:53:11.307Z,9.26
2023-04-28T04:03:11.567Z,9.26
2023-04-28T04:13:11.471Z,9.59
2023-04-28T04:23:11.670Z,9.26
2023-04-28T04:33:15.041Z,9.59
2023-04-28T04:43:12.045Z,9.42
2023-04-28T04:53:15.488Z,9.91
2023-04-28T05:03:12.644Z,9.75
2023-04-28T05:13:12.927Z,10.07
2023-04-28T05:23:12.915Z,10.23
2023-04-28T05:33:13.173Z,10.23
2023-04-28T05:43:13.352Z,10.07
2023-04-28T05:53:13.645Z,10.07
2023-04-28T06:03:13.756Z,10.23
2023-04-28T06:13:14.734Z,10.23
2023-04-28T06:23:14.134Z,9.39
2023-04-28T06:33:14.297Z,9.70
2023-04-28T06:43:14.318Z,9.70
2023-04-28T06:53:14.543Z,9.55
2023-04-28T07:03:14.839Z,9.70
2023-04-28T07:13:14.924Z,9.85
2023-04-28T07:23:15.126Z,9.70
2023-04-28T07:33:15.446Z,9.55
2023-04-28T07:43:15.401Z,9.39
2023-04-28T07:53:15.664Z,9.39
2023-04-28T08:03:16.192Z,9.39
2023-04-28T08:13:17.138Z,9.39
2023-04-28T08:23:16.335Z,10.39
2023-04-28T08:33:16.635Z,10.39
2023-04-28T08:43:16.615Z,10.39
2023-04-28T08:53:19.923Z,10.54
2023-04-28T09:03:17.049Z,10.54
2023-04-28T09:13:17.134Z,10.39
2023-04-28T09:23:17.161Z,10.54
2023-04-28T09:33:17.427Z,10.39
2023-04-28T09:43:21.891Z,10.54
2023-04-28T09:53:17.866Z,10.39
2023-04-28T10:03:18.736Z,10.39
2023-04-28T10:13:18.076Z,10.23
2023-04-28T10:23:18.332Z,10.23
2023-04-28T10:33:18.537Z,10.23
2023-04-28T10:43:18.803Z,10.39
2023-04-28T10:53:19.005Z,10.39
2023-04-28T11:03:19.414Z,10.39
2023-04-28T11:13:19.458Z,10.23
2023-04-28T11:23:19.743Z,10.54
2023-04-28T11:33:19.922Z,10.70
2023-04-28T11:43:20.214Z,10.70
2023-04-28T11:53:21.657Z,10.70
2023-04-28T12:03:22.489Z,10.70
2023-04-28T12:13:20.517Z,10.54
2023-04-28T12:23:20.762Z,10.70
2023-04-28T12:33:20.805Z,11.69
2023-04-28T12:43:21.045Z,11.69
2023-04-28T12:53:21.266Z,11.69
2023-04-28T13:03:21.991Z,11.69
2023-04-28T13:13:21.692Z,11.69
2023-04-28T13:23:21.968Z,11.69
2023-04-28T13:33:21.960Z,11.54
2023-04-28T13:43:22.235Z,11.54
2023-04-28T13:53:22.222Z,11.69
